createdAt,value
2019-04-05T00:00:06.911Z,14.40
2019-04-05T00:02:37.721Z,15.33
2019-04-05T00:05:06.966Z,14.63
2019-04-05T00:07:36.137Z,16.80
2019-04-05T00:10:06.674Z,15.20
2019-04-05T00:12:36.920Z,16.50
2019-04-05T00:15:15.059Z,15.00
2019-04-05T00:17:38.011Z,14.90
2019-04-05T00:20:07.851Z,16.00
2019-04-05T00:22:37.037Z,16.03
2019-04-05T00:25:06.745Z,15.20
2019-04-05T00:27:36.912Z,15.47
2019-04-05T00:30:10.405Z,15.67
2019-04-05T00:32:39.595Z,17.10
2019-04-05T00:35:08.863Z,14.90
2019-04-05T00:37:38.049Z,14.83
2019-04-05T00:40:09.676Z,15.50
2019-04-05T00:42:39.100Z,16.67
2019-04-05T00:45:08.641Z,14.97
2019-04-05T00:47:37.831Z,15.57
2019-04-05T00:50:08.538Z,14.27
2019-04-05T00:52:37.733Z,15.80
2019-04-05T00:55:08.168Z,15.67
2019-04-05T00:57:37.360Z,13.70
2019-04-05T01:00:07.193Z,14.87
2019-04-05T01:02:36.428Z,15.50
2019-04-05T01:05:06.558Z,15.30
2019-04-05T01:07:35.794Z,15.13
2019-04-05T01:10:07.063Z,14.87
2019-04-05T01:12:36.705Z,14.60
2019-04-05T01:15:07.595Z,15.37
2019-04-05T01:17:37.119Z,13.80
2019-04-05T01:20:06.479Z,14.03
2019-04-05T01:22:35.836Z,15.60
2019-04-05T01:25:07.938Z,15.10
2019-04-05T01:27:39.135Z,15.80
2019-04-05T01:30:11.517Z,15.77
2019-04-05T01:32:40.708Z,16.60
2019-04-05T01:35:10.050Z,17.03
2019-04-05T01:37:39.803Z,16.40
2019-04-05T01:40:09.335Z,15.87
2019-04-05T01:42:38.583Z,16.57
2019-04-05T01:45:08.608Z,16.10
2019-04-05T01:47:37.780Z,16.13
2019-04-05T01:50:08.973Z,16.47
2019-04-05T01:52:38.715Z,17.47
2019-04-05T01:55:08.346Z,15.97
2019-04-05T01:57:37.530Z,16.27
2019-04-05T02:00:10.116Z,15.40
2019-04-05T02:02:39.458Z,15.27
2019-04-05T02:05:08.987Z,15.60
2019-04-05T02:07:38.502Z,15.30
2019-04-05T02:10:09.639Z,14.77
2019-04-05T02:12:40.164Z,14.27
2019-04-05T02:15:09.984Z,14.67
2019-04-05T02:17:39.156Z,15.70
2019-04-05T02:20:08.903Z,14.60
2019-04-05T02:22:38.162Z,15.37
2019-04-05T02:25:07.522Z,15.93
2019-04-05T02:27:36.693Z,14.63
2019-04-05T02:30:07.121Z,17.93
2019-04-05T02:32:36.291Z,17.13
2019-04-05T02:35:07.213Z,16.90
2019-04-05T02:37:37.157Z,16.23
2019-04-05T02:40:13.954Z,17.70
2019-04-05T02:42:44.593Z,17.60
2019-04-05T02:45:14.433Z,16.73
2019-04-05T02:47:46.805Z,15.70
2019-04-05T02:50:16.166Z,18.10
2019-04-05T02:52:47.130Z,16.10
2019-04-05T02:55:16.480Z,16.60
2019-04-05T02:57:46.229Z,15.67
2019-04-05T03:00:17.857Z,16.27
2019-04-05T03:02:47.809Z,17.30
2019-04-05T03:05:18.166Z,15.27
2019-04-05T03:07:47.613Z,17.80
2019-04-05T03:10:53.101Z,16.10
2019-04-05T03:13:24.450Z,15.50
2019-04-05T03:15:55.314Z,17.03
2019-04-05T03:18:25.986Z,16.20
2019-04-05T03:20:57.337Z,16.87
2019-04-05T03:23:26.758Z,17.00
2019-04-05T03:25:56.919Z,15.57
2019-04-05T03:28:26.442Z,16.53
2019-04-05T03:30:56.090Z,18.50
2019-04-05T03:33:25.521Z,19.13
2019-04-05T03:35:54.697Z,17.10
2019-04-05T03:38:24.328Z,16.40
2019-04-05T03:40:53.518Z,17.20
2019-04-05T03:43:22.862Z,17.37
2019-04-05T03:45:52.231Z,18.93
2019-04-05T03:48:21.662Z,18.20
2019-04-05T03:50:51.027Z,16.67
2019-04-05T03:53:20.197Z,17.03
2019-04-05T03:55:49.758Z,17.00
2019-04-05T03:58:19.195Z,18.17
2019-04-05T04:00:48.458Z,17.17
2019-04-05T04:03:17.930Z,17.83
2019-04-05T04:05:47.478Z,17.57
2019-04-05T04:08:16.822Z,17.83
2019-04-05T04:10:47.309Z,16.73
2019-04-05T04:13:16.488Z,16.27
2019-04-05T04:15:46.315Z,16.27
2019-04-05T04:18:16.148Z,17.00
2019-04-05T04:20:51.044Z,18.40
2019-04-05T04:23:23.645Z,16.40
2019-04-05T04:25:53.894Z,16.97
2019-04-05T04:28:23.164Z,17.37
2019-04-05T04:30:52.705Z,18.30
2019-04-05T04:33:21.972Z,18.10
2019-04-05T04:35:51.744Z,18.23
2019-04-05T04:38:21.221Z,17.73
2019-04-05T04:40:50.417Z,17.03
2019-04-05T04:43:20.722Z,16.87
2019-04-05T04:45:50.191Z,19.80
2019-04-05T04:48:19.434Z,17.90
2019-04-05T04:50:48.896Z,15.90
2019-04-05T04:53:18.361Z,17.17
2019-04-05T04:55:47.548Z,16.20
2019-04-05T04:58:16.992Z,17.50
2019-04-05T05:00:46.356Z,17.37
2019-04-05T05:03:15.542Z,17.17
2019-04-05T05:05:44.721Z,16.27
2019-04-05T05:08:14.089Z,16.97
2019-04-05T05:10:43.254Z,16.73
2019-04-05T05:13:12.441Z,16.37
2019-04-05T05:15:41.641Z,14.97
2019-04-05T05:18:10.838Z,17.97
2019-04-05T05:20:42.656Z,17.40
2019-04-05T05:23:11.356Z,17.63
2019-04-05T05:25:40.532Z,16.70
2019-04-05T05:28:10.089Z,16.10
2019-04-05T05:30:39.281Z,17.37
2019-04-05T05:33:08.473Z,16.23
2019-04-05T05:35:37.644Z,16.33
2019-04-05T05:38:06.841Z,17.23
2019-04-05T05:40:36.084Z,17.80
2019-04-05T05:43:05.258Z,16.63
2019-04-05T05:45:34.450Z,18.70
2019-04-05T05:48:03.626Z,14.50
2019-04-05T05:50:32.891Z,16.23
2019-04-05T05:53:02.386Z,17.17
2019-04-05T05:55:32.920Z,13.50
2019-04-05T05:58:02.091Z,13.83
2019-04-05T06:00:31.635Z,13.97
2019-04-05T06:03:00.806Z,13.77
2019-04-05T06:05:29.994Z,13.50
2019-04-05T06:08:00.986Z,13.33
2019-04-05T06:10:30.053Z,14.00
2019-04-05T06:12:59.237Z,13.33
2019-04-05T06:15:28.442Z,13.60
2019-04-05T06:18:04.635Z,12.80
2019-04-05T06:20:28.472Z,18.50
2019-04-05T06:22:57.662Z,13.43
2019-04-05T06:25:26.832Z,14.27
2019-04-05T06:27:59.943Z,13.00
2019-04-05T06:30:29.352Z,12.77
2019-04-05T06:32:58.532Z,12.40
2019-04-05T06:35:27.732Z,12.67
2019-04-05T06:37:56.901Z,13.83
2019-04-05T06:40:26.098Z,13.53
2019-04-05T06:42:55.292Z,16.67
2019-04-05T06:45:24.488Z,16.20
2019-04-05T06:47:53.682Z,13.53
2019-04-05T06:50:22.854Z,15.57
2019-04-05T06:52:52.041Z,15.70
2019-04-05T06:55:21.213Z,16.53
2019-04-05T06:57:50.404Z,15.20
2019-04-05T07:00:22.947Z,15.43
2019-04-05T07:02:52.205Z,14.13
2019-04-05T07:05:21.404Z,15.03
2019-04-05T07:07:50.583Z,13.77
2019-04-05T07:10:21.094Z,13.73
2019-04-05T07:12:50.394Z,14.70
2019-04-05T07:15:19.627Z,15.80
2019-04-05T07:17:48.817Z,14.30
2019-04-05T07:20:18.015Z,14.07
2019-04-05T07:22:47.185Z,12.67
2019-04-05T07:25:16.369Z,13.00
2019-04-05T07:27:45.553Z,12.73
2019-04-05T07:30:15.085Z,13.33
2019-04-05T07:32:44.280Z,13.20
2019-04-05T07:35:13.549Z,11.80
2019-04-05T07:37:42.721Z,11.23
2019-04-05T07:40:11.982Z,11.67
2019-04-05T07:42:41.146Z,10.30
2019-04-05T07:45:10.325Z,9.70
2019-04-05T07:47:39.790Z,8.83
2019-04-05T07:50:09.908Z,9.87
2019-04-05T07:52:39.077Z,9.77
2019-04-05T07:55:08.324Z,9.10
2019-04-05T07:57:37.510Z,9.33
2019-04-05T08:00:07.817Z,8.50
2019-04-05T08:02:36.993Z,8.33
2019-04-05T08:05:07.807Z,7.87
2019-04-05T08:07:40.170Z,7.70
2019-04-05T08:10:09.681Z,7.33
2019-04-05T08:12:39.241Z,7.87
2019-04-05T08:15:09.079Z,7.47
2019-04-05T08:17:38.262Z,7.80
2019-04-05T08:20:07.452Z,8.43
2019-04-05T08:22:36.617Z,8.57
2019-04-05T08:25:05.850Z,7.20
2019-04-05T08:27:35.033Z,7.50
2019-04-05T08:30:06.976Z,6.87
2019-04-05T08:32:36.154Z,7.23
2019-04-05T08:35:06.560Z,7.27
2019-04-05T08:37:36.068Z,7.67
2019-04-05T08:40:08.815Z,7.90
2019-04-05T08:42:37.996Z,8.07
2019-04-05T08:45:07.689Z,8.10
2019-04-05T08:47:36.986Z,7.90
2019-04-05T08:50:07.157Z,8.83
2019-04-05T08:52:36.317Z,9.33
2019-04-05T08:55:06.643Z,8.10
2019-04-05T08:57:35.798Z,9.53
2019-04-05T09:00:09.133Z,8.60
2019-04-05T09:02:38.423Z,9.40
2019-04-05T09:05:07.896Z,9.10
2019-04-05T09:07:37.076Z,9.00
2019-04-05T09:10:06.678Z,9.43
2019-04-05T09:12:36.843Z,11.47
2019-04-05T09:15:07.280Z,10.70
2019-04-05T09:17:36.471Z,10.00
2019-04-05T09:20:06.085Z,10.57
2019-04-05T09:22:35.277Z,10.70
2019-04-05T09:25:06.188Z,10.60
2019-04-05T09:27:35.388Z,10.27
2019-04-05T09:30:07.002Z,11.10
2019-04-05T09:32:36.654Z,10.43
2019-04-05T09:35:06.881Z,12.97
2019-04-05T09:37:36.052Z,11.40
2019-04-05T09:40:06.709Z,11.50
2019-04-05T09:42:35.882Z,9.70
2019-04-05T09:45:07.753Z,11.10
2019-04-05T09:47:36.937Z,10.67
2019-04-05T09:50:07.377Z,11.27
2019-04-05T09:52:36.543Z,11.17
2019-04-05T09:55:06.152Z,10.50
2019-04-05T09:57:35.342Z,10.80
2019-04-05T10:00:09.233Z,9.93
2019-04-05T10:02:38.606Z,10.17
2019-04-05T10:05:07.852Z,11.10
2019-04-05T10:07:44.126Z,11.67
2019-04-05T10:10:08.149Z,10.93
2019-04-05T10:12:37.590Z,11.53
2019-04-05T10:15:07.572Z,10.73
2019-04-05T10:17:36.784Z,11.43
2019-04-05T10:20:09.936Z,11.93
2019-04-05T10:22:39.129Z,14.10
2019-04-05T10:25:08.386Z,12.00
2019-04-05T10:27:37.588Z,11.73
2019-04-05T10:30:09.368Z,12.30
2019-04-05T10:32:38.558Z,11.90
2019-04-05T10:35:08.197Z,12.23
2019-04-05T10:37:37.379Z,13.73
2019-04-05T10:40:07.993Z,12.77
2019-04-05T10:42:37.957Z,12.37
2019-04-05T10:45:09.986Z,11.60
2019-04-05T10:47:40.251Z,17.20
2019-04-05T10:50:12.077Z,10.63
2019-04-05T10:52:41.288Z,12.57
2019-04-05T10:55:10.638Z,14.03
2019-04-05T10:57:39.837Z,11.30
2019-04-05T11:00:11.710Z,11.80
2019-04-05T11:02:40.914Z,12.77
2019-04-05T11:05:10.434Z,13.13
2019-04-05T11:07:39.638Z,10.60
2019-04-05T11:10:09.224Z,12.73
2019-04-05T11:12:38.651Z,14.40
2019-04-05T11:15:08.094Z,11.63
2019-04-05T11:17:37.284Z,12.97
2019-04-05T11:20:21.082Z,11.80
2019-04-05T11:22:41.144Z,11.70
2019-04-05T11:25:11.356Z,12.00
2019-04-05T11:27:40.584Z,12.30
2019-04-05T11:30:10.541Z,16.80
2019-04-05T11:32:39.738Z,11.70
2019-04-05T11:35:09.535Z,18.43
2019-04-05T11:37:39.629Z,12.27
2019-04-05T11:40:09.888Z,12.47
2019-04-05T11:42:41.039Z,12.50
2019-04-05T11:45:10.417Z,11.87
2019-04-05T11:47:40.804Z,13.03
2019-04-05T11:50:14.260Z,14.63
2019-04-05T11:52:43.444Z,12.47
2019-04-05T11:55:12.918Z,13.43
2019-04-05T11:57:42.101Z,14.40
2019-04-05T12:00:16.384Z,13.27
2019-04-05T12:03:03.685Z,15.23
2019-04-05T12:05:32.882Z,13.50
2019-04-05T12:08:02.203Z,14.10
2019-04-05T12:10:32.522Z,12.37
2019-04-05T12:13:02.042Z,11.60
2019-04-05T12:15:31.236Z,12.30
2019-04-05T12:18:00.437Z,12.60
2019-04-05T12:20:32.785Z,11.57
2019-04-05T12:23:00.843Z,12.40
2019-04-05T12:25:31.797Z,12.37
2019-04-05T12:28:07.013Z,12.53
2019-04-05T12:30:31.804Z,12.27
2019-04-05T12:33:12.983Z,13.00
2019-04-05T12:35:31.897Z,13.17
2019-04-05T12:38:01.072Z,11.90
2019-04-05T12:40:30.272Z,12.10
2019-04-05T12:42:59.446Z,12.40
2019-04-05T12:45:28.656Z,11.23
2019-04-05T12:47:59.244Z,11.63
2019-04-05T12:50:29.706Z,12.70
2019-04-05T12:52:58.906Z,13.87
2019-04-05T12:55:28.086Z,12.67
2019-04-05T12:57:57.330Z,12.93
2019-04-05T13:00:26.527Z,11.30
2019-04-05T13:02:57.177Z,11.87
2019-04-05T13:05:26.583Z,13.60
2019-04-05T13:07:55.777Z,11.97
2019-04-05T13:10:26.323Z,11.93
2019-04-05T13:12:57.809Z,13.23
2019-04-05T13:15:26.656Z,13.43
2019-04-05T13:17:55.852Z,12.17
2019-04-05T13:20:25.053Z,14.37
2019-04-05T13:22:54.309Z,10.57
2019-04-05T13:25:23.773Z,11.30
2019-04-05T13:27:52.975Z,12.67
2019-04-05T13:30:23.123Z,11.37
2019-04-05T13:32:53.405Z,12.43
2019-04-05T13:35:22.765Z,12.63
2019-04-05T13:37:51.963Z,12.07
2019-04-05T13:40:21.162Z,12.33
2019-04-05T13:42:50.353Z,12.80
2019-04-05T13:45:19.533Z,13.10
2019-04-05T13:47:48.724Z,15.60
2019-04-05T13:50:19.412Z,12.87
2019-04-05T13:52:48.862Z,13.47
2019-04-05T13:55:18.046Z,11.50
2019-04-05T13:57:47.220Z,13.40
2019-04-05T14:00:18.351Z,13.47
2019-04-05T14:02:50.108Z,13.80
2019-04-05T14:05:18.700Z,14.40
2019-04-05T14:07:47.887Z,13.73
2019-04-05T14:10:17.160Z,15.17
2019-04-05T14:12:46.341Z,13.43
2019-04-05T14:15:15.617Z,13.47
2019-04-05T14:17:44.966Z,13.33
2019-04-05T14:20:18.738Z,13.43
2019-04-05T14:22:46.490Z,14.13
2019-04-05T14:25:15.746Z,13.30
2019-04-05T14:27:44.932Z,13.90
2019-04-05T14:30:14.393Z,13.27
2019-04-05T14:32:43.574Z,13.70
2019-04-05T14:35:12.769Z,12.03
2019-04-05T14:37:42.226Z,14.57
2019-04-05T14:40:14.023Z,12.90
2019-04-05T14:42:44.881Z,14.20
2019-04-05T14:45:15.694Z,13.90
2019-04-05T14:47:44.883Z,14.60
2019-04-05T14:50:16.043Z,17.07
2019-04-05T14:52:45.497Z,15.60
2019-04-05T14:55:14.666Z,15.03
2019-04-05T14:57:43.934Z,14.97
2019-04-05T15:00:17.322Z,13.47
2019-04-05T15:02:46.559Z,13.40
2019-04-05T15:05:15.826Z,13.20
2019-04-05T15:07:44.996Z,13.87
2019-04-05T15:10:14.364Z,12.30
2019-04-05T15:12:43.535Z,13.57
2019-04-05T15:15:12.839Z,14.00
2019-04-05T15:17:47.714Z,14.03
2019-04-05T15:20:13.359Z,14.50
2019-04-05T15:22:42.550Z,14.57
2019-04-05T15:25:12.278Z,14.33
2019-04-05T15:27:41.737Z,14.20
2019-04-05T15:30:11.300Z,14.40
2019-04-05T15:32:40.971Z,13.83
2019-04-05T15:35:10.388Z,15.27
2019-04-05T15:37:39.608Z,13.43
2019-04-05T15:40:09.250Z,15.47
2019-04-05T15:42:38.433Z,13.30
2019-04-05T15:45:09.163Z,14.57
2019-04-05T15:47:38.649Z,14.90
2019-04-05T15:50:09.113Z,15.43
2019-04-05T15:52:38.301Z,14.70
2019-04-05T15:55:07.726Z,15.20
2019-04-05T15:57:39.343Z,14.37
2019-04-05T16:00:10.504Z,15.17
2019-04-05T16:02:42.640Z,15.60
2019-04-05T16:05:11.009Z,16.43
2019-04-05T16:07:40.198Z,17.23
2019-04-05T16:10:11.016Z,16.27
2019-04-05T16:12:40.210Z,16.80
2019-04-05T16:15:09.928Z,16.83
2019-04-05T16:17:39.387Z,16.07
2019-04-05T16:20:11.852Z,16.83
2019-04-05T16:22:41.057Z,18.40
2019-04-05T16:25:10.494Z,19.70
2019-04-05T16:27:39.689Z,18.47
2019-04-05T16:30:09.206Z,19.60
2019-04-05T16:32:38.400Z,17.70
2019-04-05T16:35:08.078Z,17.53
2019-04-05T16:37:37.538Z,19.13
2019-04-05T16:40:08.520Z,16.97
2019-04-05T16:42:37.722Z,19.37
2019-04-05T16:45:08.957Z,20.00
2019-04-05T16:47:38.129Z,19.70
2019-04-05T16:50:08.928Z,19.73
2019-04-05T16:52:44.769Z,21.77
2019-04-05T16:55:09.150Z,17.83
2019-04-05T16:57:38.400Z,18.53
2019-04-05T17:00:09.898Z,22.23
2019-04-05T17:02:39.257Z,21.43
2019-04-05T17:05:08.447Z,21.03
2019-04-05T17:07:37.640Z,19.63
2019-04-05T17:10:07.143Z,20.03
2019-04-05T17:12:36.396Z,20.03
2019-04-05T17:15:07.529Z,23.03
2019-04-05T17:17:36.970Z,20.67
2019-04-05T17:20:06.637Z,23.20
2019-04-05T17:22:35.877Z,22.10
2019-04-05T17:25:06.250Z,20.60
2019-04-05T17:27:35.507Z,21.90
2019-04-05T17:30:07.944Z,18.87
2019-04-05T17:32:37.116Z,23.63
2019-04-05T17:35:07.432Z,21.57
2019-04-05T17:37:36.601Z,20.70
2019-04-05T17:40:07.399Z,24.33
2019-04-05T17:42:36.643Z,25.17
2019-04-05T17:45:07.733Z,25.30
2019-04-05T17:47:37.878Z,23.47
2019-04-05T17:50:10.377Z,24.43
2019-04-05T17:52:38.651Z,28.70
2019-04-05T17:55:07.980Z,27.83
2019-04-05T17:57:37.181Z,23.10
2019-04-05T18:00:09.440Z,27.80
2019-04-05T18:02:38.686Z,24.97
2019-04-05T18:05:08.247Z,27.93
2019-04-05T18:07:37.476Z,26.23
2019-04-05T18:10:06.664Z,23.63
2019-04-05T18:12:35.838Z,23.73
2019-04-05T18:15:05.399Z,23.53
2019-04-05T18:17:34.754Z,23.60
2019-04-05T18:20:09.635Z,24.60
2019-04-05T18:22:37.692Z,25.50
2019-04-05T18:25:07.458Z,24.13
2019-04-05T18:27:36.651Z,24.67
2019-04-05T18:30:07.318Z,24.93
2019-04-05T18:32:36.834Z,23.13
2019-04-05T18:35:06.565Z,24.60
2019-04-05T18:37:35.737Z,23.20
2019-04-05T18:40:06.867Z,22.00
2019-04-05T18:42:36.070Z,24.43
2019-04-05T18:45:06.980Z,28.70
2019-04-05T18:47:36.174Z,21.90
2019-04-05T18:50:06.987Z,23.30
2019-04-05T18:52:36.153Z,25.10
2019-04-05T18:55:06.778Z,23.90
2019-04-05T18:57:35.975Z,23.33
2019-04-05T19:00:08.428Z,26.47
2019-04-05T19:02:37.612Z,24.77
2019-04-05T19:05:08.015Z,23.63
2019-04-05T19:07:37.190Z,23.57
2019-04-05T19:10:07.345Z,28.03
2019-04-05T19:12:36.544Z,24.53
2019-04-05T19:15:07.106Z,31.20
2019-04-05T19:17:36.288Z,23.70
2019-04-05T19:20:06.200Z,25.87
2019-04-05T19:22:35.388Z,26.27
2019-04-05T19:25:06.893Z,22.60
2019-04-05T19:27:36.091Z,25.33
2019-04-05T19:50:16.288Z,24.20
2019-04-05T19:52:45.452Z,21.90
2019-04-05T19:55:14.654Z,22.43
2019-04-05T19:57:43.842Z,23.27
2019-04-05T20:00:14.737Z,27.33
2019-04-05T20:02:44.245Z,29.43
2019-04-05T20:05:13.580Z,27.20
2019-04-05T20:07:42.772Z,27.80
2019-04-05T20:10:12.020Z,27.77
2019-04-05T20:12:42.385Z,30.53
2019-04-05T20:15:11.629Z,27.10
2019-04-05T20:17:40.829Z,30.70
2019-04-05T20:20:11.465Z,28.80
2019-04-05T20:22:40.635Z,34.07
2019-04-05T20:25:09.892Z,33.07
2019-04-05T20:27:40.155Z,29.67
2019-04-05T20:30:09.501Z,32.17
2019-04-05T20:32:38.685Z,29.03
2019-04-05T20:35:08.556Z,27.00
2019-04-05T20:37:39.982Z,27.30
2019-04-05T20:40:08.853Z,27.30
2019-04-05T20:42:38.044Z,26.70
2019-04-05T20:45:07.785Z,28.10
2019-04-05T20:47:38.321Z,25.00
2019-04-05T20:50:07.849Z,24.57
2019-04-05T20:52:37.536Z,24.33
2019-04-05T20:55:07.349Z,24.93
2019-04-05T20:57:36.545Z,27.13
2019-04-05T21:00:07.929Z,24.90
2019-04-05T21:02:38.737Z,22.47
2019-04-05T21:05:07.914Z,21.97
2019-04-05T21:07:38.478Z,22.57
2019-04-05T21:10:08.077Z,23.27
2019-04-05T21:12:37.269Z,24.60
2019-04-05T21:15:07.295Z,24.03
2019-04-05T21:17:36.495Z,23.47
2019-04-05T21:20:07.232Z,23.83
2019-04-05T21:22:36.408Z,23.87
2019-04-05T21:25:06.740Z,23.80
2019-04-05T21:27:35.928Z,24.40
2019-04-05T21:30:08.708Z,23.30
2019-04-05T21:32:37.881Z,21.57
2019-04-05T21:35:07.252Z,23.73
2019-04-05T21:37:36.433Z,24.67
2019-04-05T21:40:06.473Z,25.07
2019-04-05T21:42:35.640Z,24.07
2019-04-05T21:45:06.750Z,21.00
2019-04-05T21:47:35.942Z,26.97
2019-04-05T21:50:09.610Z,23.00
2019-04-05T21:52:38.866Z,27.60
2019-04-05T21:55:08.115Z,23.03
2019-04-05T21:57:37.610Z,23.70
2019-04-05T22:00:25.126Z,24.50
2019-04-05T22:02:56.007Z,24.73
2019-04-05T22:05:25.183Z,28.03
2019-04-05T22:07:54.370Z,25.43
2019-04-05T22:10:23.886Z,24.43
2019-04-05T22:12:53.074Z,25.73
2019-04-05T22:15:22.245Z,27.80
2019-04-05T22:17:51.438Z,24.13
2019-04-05T22:20:21.502Z,25.47
2019-04-05T22:22:50.687Z,27.93
2019-04-05T22:25:19.884Z,27.97
2019-04-05T22:27:49.048Z,27.43
2019-04-05T22:30:18.266Z,27.47
2019-04-05T22:32:47.431Z,27.80
2019-04-05T22:35:17.160Z,28.80
2019-04-05T22:37:46.335Z,27.70
2019-04-05T22:40:15.688Z,26.70
2019-04-05T22:42:45.956Z,29.63
2019-04-05T22:45:15.146Z,25.57
2019-04-05T22:47:44.341Z,26.93
2019-04-05T22:50:13.937Z,31.00
2019-04-05T22:52:43.129Z,27.63
2019-04-05T22:55:12.327Z,26.70
2019-04-05T22:57:41.505Z,27.77
2019-04-05T23:00:10.766Z,29.00
2019-04-05T23:02:41.576Z,26.33
2019-04-05T23:05:10.992Z,29.77
2019-04-05T23:07:40.172Z,29.97
2019-04-05T23:10:09.884Z,31.80
2019-04-05T23:12:39.073Z,32.10
2019-04-05T23:15:08.881Z,27.10
2019-04-05T23:17:38.073Z,30.37
2019-04-05T23:20:07.921Z,27.23
2019-04-05T23:22:37.089Z,28.90
2019-04-05T23:25:07.445Z,27.23
2019-04-05T23:27:36.612Z,29.37
2019-04-05T23:30:07.113Z,29.60
2019-04-05T23:32:36.309Z,28.50
2019-04-05T23:35:06.417Z,30.40
2019-04-05T23:37:35.612Z,30.47
2019-04-05T23:40:05.720Z,25.97
2019-04-05T23:42:34.910Z,27.10
2019-04-05T23:45:06.020Z,28.30
2019-04-05T23:47:35.242Z,26.90
2019-04-05T23:50:05.689Z,26.90
2019-04-05T23:52:34.884Z,26.90
2019-04-05T23:55:05.496Z,26.87
2019-04-05T23:57:34.689Z,24.53
